sensor_id;sensor_type;location;lat;lon;timestamp;pressure;altitude;pressure_sealevel;temperature;humidity
70902;BME280;58548;47.210;8.618;2022-09-09T00:02:22;93982.66;;;21.86;41.84
70902;BME280;58548;47.210;8.618;2022-09-09T00:08:20;93900.91;;;21.29;41.11
70902;BME280;58548;47.210;8.618;2022-09-09T00:10:59;93936.59;;;21.49;41.48
70902;BME280;58548;47.210;8.618;2022-09-09T00:13:48;93904.91;;;21.32;41.31
70902;BME280;58548;47.210;8.618;2022-09-09T00:16:28;93956.53;;;21.57;41.61
70902;BME280;58548;47.210;8.618;2022-09-09T00:22:16;93945.59;;;21.53;41.90
70902;BME280;58548;47.210;8.618;2022-09-09T00:24:52;93973.53;;;21.56;42.01
70902;BME280;58548;47.210;8.618;2022-09-09T00:27:41;93976.22;;;21.61;41.94
70902;BME280;58548;47.210;8.618;2022-09-09T00:30:23;93962.88;;;21.50;42.34
70902;BME280;58548;47.210;8.618;2022-09-09T00:33:00;93979.94;;;21.65;42.05
70902;BME280;58548;47.210;8.618;2022-09-09T00:35:38;93958.66;;;21.54;41.80
70902;BME280;58548;47.210;8.618;2022-09-09T00:38:18;93967.19;;;21.62;41.86
70902;BME280;58548;47.210;8.618;2022-09-09T00:40:48;93966.09;;;21.58;42.32
70902;BME280;58548;47.210;8.618;2022-09-09T00:43:35;93961.88;;;21.62;41.99
70902;BME280;58548;47.210;8.618;2022-09-09T00:48:54;93969.31;;;21.60;42.45
70902;BME280;58548;47.210;8.618;2022-09-09T01:02:37;93943.94;;;21.31;41.67
70902;BME280;58548;47.210;8.618;2022-09-09T01:05:13;93975.13;;;21.57;41.86
70902;BME280;58548;47.210;8.618;2022-09-09T01:07:48;93966.06;;;21.47;41.88
70902;BME280;58548;47.210;8.618;2022-09-09T01:13:00;93964.97;;;21.43;41.64
70902;BME280;58548;47.210;8.618;2022-09-09T01:15:32;93972.41;;;21.41;42.10
70902;BME280;58548;47.210;8.618;2022-09-09T01:18:10;93946.88;;;21.30;42.21
70902;BME280;58548;47.210;8.618;2022-09-09T01:20:51;93977.94;;;21.29;42.06
70902;BME280;58548;47.210;8.618;2022-09-09T01:28:46;93959.56;;;21.12;42.26
70902;BME280;58548;47.210;8.618;2022-09-09T01:31:22;93948.91;;;21.07;42.58
70902;BME280;58548;47.210;8.618;2022-09-09T01:33:51;93971.81;;;21.18;42.15
70902;BME280;58548;47.210;8.618;2022-09-09T01:36:36;93947.28;;;20.96;42.52
70902;BME280;58548;47.210;8.618;2022-09-09T01:39:06;93940.31;;;20.89;41.65
70902;BME280;58548;47.210;8.618;2022-09-09T01:41:34;93969.59;;;21.05;41.82
70902;BME280;58548;47.210;8.618;2022-09-09T01:44:01;93950.94;;;20.89;42.28
70902;BME280;58548;47.210;8.618;2022-09-09T01:46:28;93971.94;;;20.96;42.41
70902;BME280;58548;47.210;8.618;2022-09-09T01:48:55;93963.72;;;20.98;42.15
70902;BME280;58548;47.210;8.618;2022-09-09T01:51:23;93974.31;;;20.98;42.31
70902;BME280;58548;47.210;8.618;2022-09-09T01:53:51;93962.34;;;20.90;41.76
70902;BME280;58548;47.210;8.618;2022-09-09T02:04:37;93966.78;;;20.79;41.98
70902;BME280;58548;47.210;8.618;2022-09-09T02:12:43;93983.78;;;20.78;42.49
70902;BME280;58548;47.210;8.618;2022-09-09T02:15:21;93982.25;;;20.87;42.58
70902;BME280;58548;47.210;8.618;2022-09-09T02:17:54;93995.56;;;20.98;42.75
70902;BME280;58548;47.210;8.618;2022-09-09T02:20:23;93984.66;;;20.94;42.35
70902;BME280;58548;47.210;8.618;2022-09-09T02:22:53;93978.28;;;20.90;42.11
70902;BME280;58548;47.210;8.618;2022-09-09T02:25:28;93982.56;;;20.96;42.07
70902;BME280;58548;47.210;8.618;2022-09-09T02:27:56;93971.63;;;20.87;41.99
70902;BME280;58548;47.210;8.618;2022-09-09T02:30:29;94001.47;;;21.05;41.84
70902;BME280;58548;47.210;8.618;2022-09-09T02:33:03;94008.91;;;21.08;42.03
70902;BME280;58548;47.210;8.618;2022-09-09T02:35:32;94013.16;;;21.09;42.24
70902;BME280;58548;47.210;8.618;2022-09-09T02:38:08;93995.88;;;21.01;41.91
70902;BME280;58548;47.210;8.618;2022-09-09T02:40:38;94016.38;;;21.11;42.81
70902;BME280;58548;47.210;8.618;2022-09-09T02:43:04;93997.72;;;21.01;42.73
70902;BME280;58548;47.210;8.618;2022-09-09T02:45:44;94018.00;;;21.22;42.50
70902;BME280;58548;47.210;8.618;2022-09-09T02:51:04;94023.94;;;21.40;43.38
70902;BME280;58548;47.210;8.618;2022-09-09T02:56:32;94017.13;;;21.60;43.56
70902;BME280;58548;47.210;8.618;2022-09-09T02:59:04;94001.69;;;21.57;43.40
70902;BME280;58548;47.210;8.618;2022-09-09T03:01:33;94026.00;;;21.81;42.96
70902;BME280;58548;47.210;8.618;2022-09-09T03:03:59;94023.63;;;21.90;43.65
70902;BME280;58548;47.210;8.618;2022-09-09T03:06:27;94008.72;;;21.89;43.48
70902;BME280;58548;47.210;8.618;2022-09-09T03:08:53;94008.22;;;21.92;42.89
70902;BME280;58548;47.210;8.618;2022-09-09T03:11:19;94003.69;;;21.97;43.20
70902;BME280;58548;47.210;8.618;2022-09-09T03:13:48;94019.69;;;22.23;43.50
70902;BME280;58548;47.210;8.618;2022-09-09T03:16:14;94027.44;;;22.35;43.36
70902;BME280;58548;47.210;8.618;2022-09-09T03:18:40;94029.59;;;22.49;43.31
70902;BME280;58548;47.210;8.618;2022-09-09T03:21:06;94018.41;;;22.47;43.35
70902;BME280;58548;47.210;8.618;2022-09-09T03:23:32;94040.25;;;22.64;43.00
70902;BME280;58548;47.210;8.618;2022-09-09T03:26:03;94005.09;;;22.52;42.92
70902;BME280;58548;47.210;8.618;2022-09-09T03:28:29;94031.72;;;22.78;42.97
70902;BME280;58548;47.210;8.618;2022-09-09T03:31:01;94023.19;;;22.76;42.99
70902;BME280;58548;47.210;8.618;2022-09-09T03:33:29;94031.44;;;22.89;42.55
70902;BME280;58548;47.210;8.618;2022-09-09T03:35:57;94020.78;;;22.89;42.20
70902;BME280;58548;47.210;8.618;2022-09-09T03:38:24;93994.44;;;22.78;41.56
70902;BME280;58548;47.210;8.618;2022-09-09T03:40:54;94019.69;;;23.06;41.49
70902;BME280;58548;47.210;8.618;2022-09-09T03:43:27;94028.50;;;23.22;40.79
70902;BME280;58548;47.210;8.618;2022-09-09T03:45:54;94029.28;;;23.23;40.74
70902;BME280;58548;47.210;8.618;2022-09-09T03:48:23;94017.84;;;23.22;40.59
70902;BME280;58548;47.210;8.618;2022-09-09T03:50:56;94015.16;;;23.27;40.60
70902;BME280;58548;47.210;8.618;2022-09-09T03:53:27;94018.34;;;23.29;40.53
70902;BME280;58548;47.210;8.618;2022-09-09T03:55:55;93986.94;;;23.21;40.50
70902;BME280;58548;47.210;8.618;2022-09-09T03:58:23;94012.97;;;23.40;40.69
70902;BME280;58548;47.210;8.618;2022-09-09T04:01:00;93976.00;;;23.17;40.21
70902;BME280;58548;47.210;8.618;2022-09-09T04:03:27;93998.06;;;23.33;39.82
70902;BME280;58548;47.210;8.618;2022-09-09T04:05:54;94015.63;;;23.45;40.13
70902;BME280;58548;47.210;8.618;2022-09-09T04:08:23;94023.34;;;23.46;40.07
70902;BME280;58548;47.210;8.618;2022-09-09T04:11:00;94010.84;;;23.47;39.67
70902;BME280;58548;47.210;8.618;2022-09-09T04:13:28;93936.38;;;22.95;40.11
70902;BME280;58548;47.210;8.618;2022-09-09T04:15:58;93997.00;;;23.40;40.14
70902;BME280;58548;47.210;8.618;2022-09-09T04:18:25;93990.06;;;23.33;40.43
70902;BME280;58548;47.210;8.618;2022-09-09T04:20:52;93997.50;;;23.47;40.23
70902;BME280;58548;47.210;8.618;2022-09-09T04:23:19;93997.50;;;23.47;40.09
70902;BME280;58548;47.210;8.618;2022-09-09T04:25:50;94005.44;;;23.57;40.40
70902;BME280;58548;47.210;8.618;2022-09-09T04:28:18;94014.78;;;23.60;40.79
70902;BME280;58548;47.210;8.618;2022-09-09T04:30:47;93999.34;;;23.52;40.64
70902;BME280;58548;47.210;8.618;2022-09-09T04:33:16;93993.72;;;23.53;40.76
70902;BME280;58548;47.210;8.618;2022-09-09T04:35:51;93980.38;;;23.58;40.83
70902;BME280;58548;47.210;8.618;2022-09-09T04:38:20;94011.28;;;23.70;40.72
70902;BME280;58548;47.210;8.618;2022-09-09T04:40:50;94011.00;;;23.71;40.61
70902;BME280;58548;47.210;8.618;2022-09-09T04:43:17;94020.88;;;23.66;41.19
70902;BME280;58548;47.210;8.618;2022-09-09T04:45:48;94016.09;;;23.62;40.90
70902;BME280;58548;47.210;8.618;2022-09-09T04:48:14;94017.97;;;23.62;41.46
70902;BME280;58548;47.210;8.618;2022-09-09T04:50:41;94003.91;;;23.51;41.45
70902;BME280;58548;47.210;8.618;2022-09-09T04:53:07;94023.56;;;23.60;42.04
70902;BME280;58548;47.210;8.618;2022-09-09T04:55:35;94000.19;;;23.42;41.96
70902;BME280;58548;47.210;8.618;2022-09-09T04:58:08;94016.63;;;23.59;42.05
70902;BME280;58548;47.210;8.618;2022-09-09T05:00:41;94026.78;;;23.52;41.81
70902;BME280;58548;47.210;8.618;2022-09-09T05:03:09;93997.53;;;23.37;41.83
70902;BME280;58548;47.210;8.618;2022-09-09T05:05:35;94021.75;;;23.51;41.95
70902;BME280;58548;47.210;8.618;2022-09-09T05:08:06;93993.28;;;23.36;42.28
70902;BME280;58548;47.210;8.618;2022-09-09T05:10:37;93994.88;;;23.31;41.87
70902;BME280;58548;47.210;8.618;2022-09-09T05:13:05;94006.06;;;23.39;42.34
70902;BME280;58548;47.210;8.618;2022-09-09T05:15:34;94001.56;;;23.24;42.01
70902;BME280;58548;47.210;8.618;2022-09-09T05:18:03;93943.06;;;22.87;42.28
70902;BME280;58548;47.210;8.618;2022-09-09T05:20:31;94003.41;;;23.33;42.93
70902;BME280;58548;47.210;8.618;2022-09-09T05:22:57;94018.56;;;23.43;42.82
70902;BME280;58548;47.210;8.618;2022-09-09T05:25:27;93989.59;;;23.21;42.76
70902;BME280;58548;47.210;8.618;2022-09-09T05:27:53;94001.31;;;23.25;42.56
70902;BME280;58548;47.210;8.618;2022-09-09T05:30:20;94014.56;;;23.41;42.84
70902;BME280;58548;47.210;8.618;2022-09-09T05:32:50;93991.97;;;23.28;42.75
70902;BME280;58548;47.210;8.618;2022-09-09T05:35:16;94021.75;;;23.45;43.16
70902;BME280;58548;47.210;8.618;2022-09-09T05:37:48;94034.81;;;23.47;42.99
70902;BME280;58548;47.210;8.618;2022-09-09T05:40:14;94023.63;;;23.50;42.94
70902;BME280;58548;47.210;8.618;2022-09-09T05:42:45;94021.25;;;23.38;43.25
70902;BME280;58548;47.210;8.618;2022-09-09T05:45:13;94038.53;;;23.51;43.09
70902;BME280;58548;47.210;8.618;2022-09-09T05:47:39;94036.94;;;23.50;43.08
70902;BME280;58548;47.210;8.618;2022-09-09T05:50:08;94037.97;;;23.54;43.14
70902;BME280;58548;47.210;8.618;2022-09-09T05:52:36;94044.66;;;23.57;43.14
70902;BME280;58548;47.210;8.618;2022-09-09T05:55:04;94018.84;;;23.37;43.07
70902;BME280;58548;47.210;8.618;2022-09-09T05:57:30;94044.34;;;23.58;43.01
70902;BME280;58548;47.210;8.618;2022-09-09T05:59:59;94042.75;;;23.62;43.14
70902;BME280;58548;47.210;8.618;2022-09-09T06:02:25;94043.28;;;23.64;43.32
70902;BME280;58548;47.210;8.618;2022-09-09T06:04:50;94043.25;;;23.70;43.70
70902;BME280;58548;47.210;8.618;2022-09-09T06:07:17;94049.13;;;23.72;42.92
70902;BME280;58548;47.210;8.618;2022-09-09T06:09:43;94050.97;;;23.71;43.42
70902;BME280;58548;47.210;8.618;2022-09-09T06:12:09;94036.38;;;23.58;43.46
70902;BME280;58548;47.210;8.618;2022-09-09T06:14:37;94055.22;;;23.77;43.14
70902;BME280;58548;47.210;8.618;2022-09-09T06:17:03;94044.28;;;23.79;43.30
70902;BME280;58548;47.210;8.618;2022-09-09T06:19:29;94038.16;;;23.78;43.31
70902;BME280;58548;47.210;8.618;2022-09-09T06:21:57;94033.91;;;23.77;43.02
70902;BME280;58548;47.210;8.618;2022-09-09T06:24:24;94013.94;;;23.70;43.19
70902;BME280;58548;47.210;8.618;2022-09-09T06:26:50;94009.16;;;23.67;42.31
70902;BME280;58548;47.210;8.618;2022-09-09T06:29:16;94035.19;;;23.90;42.93
70902;BME280;58548;47.210;8.618;2022-09-09T06:31:47;94034.88;;;23.92;43.17
70902;BME280;58548;47.210;8.618;2022-09-09T06:34:15;94036.22;;;24.00;43.31
70902;BME280;58548;47.210;8.618;2022-09-09T06:36:41;94008.25;;;23.87;42.62
70902;BME280;58548;47.210;8.618;2022-09-09T06:39:08;94007.66;;;23.95;42.83
70902;BME280;58548;47.210;8.618;2022-09-09T06:41:37;94030.78;;;24.15;42.30
70902;BME280;58548;47.210;8.618;2022-09-09T06:44:03;94018.47;;;24.19;42.23
70902;BME280;58548;47.210;8.618;2022-09-09T06:46:31;94002.47;;;24.19;42.06
70902;BME280;58548;47.210;8.618;2022-09-09T06:49:01;93944.75;;;23.89;41.69
70902;BME280;58548;47.210;8.618;2022-09-09T06:51:34;94027.84;;;24.57;42.30
70902;BME280;58548;47.210;8.618;2022-09-09T06:54:01;94021.84;;;24.75;41.57
70902;BME280;58548;47.210;8.618;2022-09-09T06:56:33;93989.69;;;24.86;41.11
70902;BME280;58548;47.210;8.618;2022-09-09T06:59:04;94000.28;;;25.25;40.75
70902;BME280;58548;47.210;8.618;2022-09-09T07:01:33;94023.03;;;25.71;40.89
70902;BME280;58548;47.210;8.618;2022-09-09T07:04:00;94001.41;;;25.68;39.55
70902;BME280;58548;47.210;8.618;2022-09-09T07:06:30;94009.03;;;25.80;39.10
70902;BME280;58548;47.210;8.618;2022-09-09T07:09:08;93998.38;;;25.74;39.43
70902;BME280;58548;47.210;8.618;2022-09-09T07:11:39;94025.38;;;25.97;38.70
70902;BME280;58548;47.210;8.618;2022-09-09T07:14:05;93990.44;;;25.88;38.52
70902;BME280;58548;47.210;8.618;2022-09-09T07:16:36;94041.03;;;26.28;39.42
70902;BME280;58548;47.210;8.618;2022-09-09T07:19:05;94027.56;;;26.33;39.67
70902;BME280;58548;47.210;8.618;2022-09-09T07:21:32;94016.16;;;26.47;38.62
70902;BME280;58548;47.210;8.618;2022-09-09T07:23:59;94015.97;;;26.57;38.22
70902;BME280;58548;47.210;8.618;2022-09-09T07:26:29;94028.75;;;26.79;38.68
70902;BME280;58548;47.210;8.618;2022-09-09T07:28:56;94025.13;;;26.89;37.58
70902;BME280;58548;47.210;8.618;2022-09-09T07:31:29;94027.81;;;27.03;36.67
70902;BME280;58548;47.210;8.618;2022-09-09T07:33:56;94037.19;;;27.34;36.95
70902;BME280;58548;47.210;8.618;2022-09-09T07:36:31;94035.06;;;27.64;36.93
70902;BME280;58548;47.210;8.618;2022-09-09T07:39:01;94019.06;;;27.87;35.37
70902;BME280;58548;47.210;8.618;2022-09-09T07:44:07;94021.34;;;28.67;35.61
70902;BME280;58548;47.210;8.618;2022-09-09T07:46:39;94018.44;;;29.09;34.11
70902;BME280;58548;47.210;8.618;2022-09-09T07:49:10;94028.63;;;29.52;33.64
70902;BME280;58548;47.210;8.618;2022-09-09T07:51:42;94055.38;;;29.98;33.03
70902;BME280;58548;47.210;8.618;2022-09-09T07:54:12;94048.44;;;30.14;31.34
70902;BME280;58548;47.210;8.618;2022-09-09T07:56:39;94055.44;;;30.33;31.49
70902;BME280;58548;47.210;8.618;2022-09-09T07:59:08;93981.13;;;29.97;31.98
70902;BME280;58548;47.210;8.618;2022-09-09T08:01:44;94031.66;;;30.35;30.76
70902;BME280;58548;47.210;8.618;2022-09-09T08:04:13;94060.22;;;30.62;30.83
70902;BME280;58548;47.210;8.618;2022-09-09T08:06:55;94043.09;;;30.76;30.77
70902;BME280;58548;47.210;8.618;2022-09-09T08:09:21;94022.66;;;30.66;29.86
70902;BME280;58548;47.210;8.618;2022-09-09T08:11:50;94028.81;;;30.75;29.46
70902;BME280;58548;47.210;8.618;2022-09-09T08:14:16;94064.78;;;31.06;29.33
70902;BME280;58548;47.210;8.618;2022-09-09T08:16:45;94047.66;;;31.10;28.88
70902;BME280;58548;47.210;8.618;2022-09-09T08:19:15;94049.25;;;31.11;28.56
70902;BME280;58548;47.210;8.618;2022-09-09T08:21:44;94062.56;;;31.08;28.47
70902;BME280;58548;47.210;8.618;2022-09-09T08:24:11;94078.25;;;31.06;29.23
70902;BME280;58548;47.210;8.618;2022-09-09T08:26:42;94069.06;;;31.16;29.12
70902;BME280;58548;47.210;8.618;2022-09-09T08:29:10;94051.94;;;31.59;28.69
70902;BME280;58548;47.210;8.618;2022-09-09T08:31:42;94075.22;;;32.11;27.10
70902;BME280;58548;47.210;8.618;2022-09-09T08:34:13;94056.66;;;32.10;26.94
70902;BME280;58548;47.210;8.618;2022-09-09T08:36:43;94051.31;;;32.22;27.30
70902;BME280;58548;47.210;8.618;2022-09-09T08:39:15;94068.31;;;32.74;26.77
70902;BME280;58548;47.210;8.618;2022-09-09T08:44:50;94069.06;;;34.25;24.79
70902;BME280;58548;47.210;8.618;2022-09-09T08:56:02;94075.50;;;37.61;20.57
70902;BME280;58548;47.210;8.618;2022-09-09T08:58:18;94058.81;;;38.12;20.51
70902;BME280;58548;47.210;8.618;2022-09-09T09:12:07;94037.03;;;40.43;17.82
70902;BME280;58548;47.210;8.618;2022-09-09T09:14:37;94045.13;;;41.06;16.54
70902;BME280;58548;47.210;8.618;2022-09-09T09:17:13;94042.84;;;41.29;15.59
70902;BME280;58548;47.210;8.618;2022-09-09T09:19:46;94067.19;;;41.64;15.77
70902;BME280;58548;47.210;8.618;2022-09-09T09:22:22;94075.84;;;41.95;14.46
70902;BME280;58548;47.210;8.618;2022-09-09T09:25:35;94070.72;;;42.11;14.50
70902;BME280;58548;47.210;8.618;2022-09-09T09:28:13;94064.41;;;42.36;14.59
70902;BME280;58548;47.210;8.618;2022-09-09T09:31:05;94056.16;;;42.58;14.63
70902;BME280;58548;47.210;8.618;2022-09-09T09:33:52;94059.22;;;42.82;13.95
70902;BME280;58548;47.210;8.618;2022-09-09T09:36:24;94048.25;;;42.74;13.60
70902;BME280;58548;47.210;8.618;2022-09-09T09:39:00;94056.78;;;43.02;13.77
70902;BME280;58548;47.210;8.618;2022-09-09T09:41:44;94078.59;;;43.34;12.99
70902;BME280;58548;47.210;8.618;2022-09-09T09:44:30;94075.59;;;43.03;12.62
70902;BME280;58548;47.210;8.618;2022-09-09T09:47:13;94068.78;;;42.08;13.28
70902;BME280;58548;47.210;8.618;2022-09-09T09:49:54;94049.91;;;41.45;14.26
70902;BME280;58548;47.210;8.618;2022-09-09T09:52:28;94070.63;;;41.24;14.87
70902;BME280;58548;47.210;8.618;2022-09-09T09:54:57;94036.44;;;40.89;14.06
70902;BME280;58548;47.210;8.618;2022-09-09T09:57:37;94031.09;;;40.33;14.79
70902;BME280;58548;47.210;8.618;2022-09-09T10:02:43;94044.03;;;40.36;14.79
70902;BME280;58548;47.210;8.618;2022-09-09T10:05:22;94048.69;;;40.32;15.48
70902;BME280;58548;47.210;8.618;2022-09-09T10:16:38;94127.13;;;36.75;19.03
70902;BME280;58548;47.210;8.618;2022-09-09T10:19:15;94126.38;;;35.17;21.06
70902;BME280;58548;47.210;8.618;2022-09-09T10:24:38;94104.53;;;32.60;23.18
70902;BME280;58548;47.210;8.618;2022-09-09T10:27:44;94100.88;;;31.57;24.49
70902;BME280;58548;47.210;8.618;2022-09-09T10:38:26;94080.28;;;29.09;28.80
70902;BME280;58548;47.210;8.618;2022-09-09T10:49:34;94086.16;;;28.14;30.32
70902;BME280;58548;47.210;8.618;2022-09-09T11:02:55;94077.00;;;33.01;26.93
70902;BME280;58548;47.210;8.618;2022-09-09T11:05:44;94042.66;;;33.85;26.15
70902;BME280;58548;47.210;8.618;2022-09-09T11:16:58;94044.50;;;36.63;20.63
70902;BME280;58548;47.210;8.618;2022-09-09T11:19:39;94047.38;;;37.10;21.26
70902;BME280;58548;47.210;8.618;2022-09-09T11:24:56;94062.34;;;38.13;20.35
70902;BME280;58548;47.210;8.618;2022-09-09T11:30:34;94036.09;;;38.58;19.15
70902;BME280;58548;47.210;8.618;2022-09-09T11:38:53;94035.16;;;39.49;18.47
70902;BME280;58548;47.210;8.618;2022-09-09T11:41:23;94033.06;;;39.77;17.21
70902;BME280;58548;47.210;8.618;2022-09-09T11:43:53;94049.69;;;40.09;16.71
70902;BME280;58548;47.210;8.618;2022-09-09T11:46:36;94030.28;;;40.22;16.77
70902;BME280;58548;47.210;8.618;2022-09-09T11:49:06;94044.84;;;40.48;16.27
70902;BME280;58548;47.210;8.618;2022-09-09T11:51:47;94051.25;;;40.66;16.31
70902;BME280;58548;47.210;8.618;2022-09-09T11:56:59;94056.03;;;40.98;15.66
70902;BME280;58548;47.210;8.618;2022-09-09T12:02:28;94055.38;;;40.38;14.87
70902;BME280;58548;47.210;8.618;2022-09-09T12:10:19;94034.41;;;39.15;17.13
70902;BME280;58548;47.210;8.618;2022-09-09T12:12:53;94044.84;;;39.05;17.27
70902;BME280;58548;47.210;8.618;2022-09-09T12:15:26;94025.13;;;38.85;17.51
70902;BME280;58548;47.210;8.618;2022-09-09T12:17:57;94044.97;;;39.16;17.56
70902;BME280;58548;47.210;8.618;2022-09-09T12:23:32;94036.75;;;39.54;16.97
70902;BME280;58548;47.210;8.618;2022-09-09T12:31:34;94017.19;;;39.97;15.96
70902;BME280;58548;47.210;8.618;2022-09-09T12:37:04;94025.63;;;40.33;16.65
70902;BME280;58548;47.210;8.618;2022-09-09T12:39:43;94011.28;;;40.54;16.33
70902;BME280;58548;47.210;8.618;2022-09-09T12:42:18;94034.91;;;40.88;15.05
70902;BME280;58548;47.210;8.618;2022-09-09T12:47:21;94008.63;;;40.73;15.25
70902;BME280;58548;47.210;8.618;2022-09-09T12:49:56;94009.81;;;40.72;14.69
70902;BME280;58548;47.210;8.618;2022-09-09T12:52:27;94028.25;;;41.00;15.03
70902;BME280;58548;47.210;8.618;2022-09-09T12:54:59;94019.22;;;40.78;16.18
70902;BME280;58548;47.210;8.618;2022-09-09T12:57:34;94019.22;;;40.74;14.26
70902;BME280;58548;47.210;8.618;2022-09-09T13:00:17;94004.78;;;40.10;15.00
70902;BME280;58548;47.210;8.618;2022-09-09T13:02:56;94013.06;;;39.69;14.88
70902;BME280;58548;47.210;8.618;2022-09-09T13:05:37;94010.16;;;39.10;15.77
70902;BME280;58548;47.210;8.618;2022-09-09T13:08:06;93998.66;;;38.55;16.26
70902;BME280;58548;47.210;8.618;2022-09-09T13:10:44;93969.03;;;37.96;16.53
70902;BME280;58548;47.210;8.618;2022-09-09T13:13:24;93997.50;;;37.76;17.41
70902;BME280;58548;47.210;8.618;2022-09-09T13:16:00;94000.63;;;37.74;17.57
70902;BME280;58548;47.210;8.618;2022-09-09T13:18:33;93993.94;;;37.71;17.19
70902;BME280;58548;47.210;8.618;2022-09-09T13:20:59;93993.75;;;37.84;18.07
70902;BME280;58548;47.210;8.618;2022-09-09T13:23:36;93992.13;;;37.79;17.29
70902;BME280;58548;47.210;8.618;2022-09-09T13:26:06;93989.00;;;37.54;16.90
70902;BME280;58548;47.210;8.618;2022-09-09T13:28:44;93985.44;;;36.84;16.71
70902;BME280;58548;47.210;8.618;2022-09-09T13:31:41;93983.84;;;36.23;18.71
70902;BME280;58548;47.210;8.618;2022-09-09T13:34:22;93985.41;;;36.25;18.21
70902;BME280;58548;47.210;8.618;2022-09-09T13:37:02;93983.47;;;36.05;18.67
70902;BME280;58548;47.210;8.618;2022-09-09T13:39:34;93973.00;;;35.72;17.71
70902;BME280;58548;47.210;8.618;2022-09-09T13:42:04;93988.50;;;35.39;19.21
70902;BME280;58548;47.210;8.618;2022-09-09T13:44:38;93970.22;;;34.92;19.25
70902;BME280;58548;47.210;8.618;2022-09-09T13:47:17;93981.03;;;34.60;20.71
70902;BME280;58548;47.210;8.618;2022-09-09T13:49:45;93976.00;;;34.33;21.02
70902;BME280;58548;47.210;8.618;2022-09-09T13:52:12;93988.72;;;34.04;21.00
70902;BME280;58548;47.210;8.618;2022-09-09T13:54:40;93984.22;;;33.59;21.54
70902;BME280;58548;47.210;8.618;2022-09-09T13:57:18;93982.34;;;33.13;22.74
70902;BME280;58548;47.210;8.618;2022-09-09T13:59:48;93954.41;;;33.09;22.85
70902;BME280;58548;47.210;8.618;2022-09-09T14:02:17;93938.31;;;32.79;22.60
70902;BME280;58548;47.210;8.618;2022-09-09T14:04:46;93968.47;;;32.90;23.73
70902;BME280;58548;47.210;8.618;2022-09-09T14:07:18;93966.44;;;32.87;23.10
70902;BME280;58548;47.210;8.618;2022-09-09T14:09:44;93942.00;;;32.62;22.75
70902;BME280;58548;47.210;8.618;2022-09-09T14:12:11;93947.50;;;32.66;23.19
70902;BME280;58548;47.210;8.618;2022-09-09T14:14:40;93948.72;;;32.56;23.42
70902;BME280;58548;47.210;8.618;2022-09-09T14:17:08;93951.38;;;32.43;23.42
70902;BME280;58548;47.210;8.618;2022-09-09T14:19:34;93950.00;;;32.37;23.07
70902;BME280;58548;47.210;8.618;2022-09-09T14:22:01;93937.88;;;32.22;23.08
70902;BME280;58548;47.210;8.618;2022-09-09T14:24:27;93959.31;;;32.27;23.98
70902;BME280;58548;47.210;8.618;2022-09-09T14:26:56;93964.09;;;32.00;24.50
70902;BME280;58548;47.210;8.618;2022-09-09T14:29:24;93955.47;;;31.86;24.26
70902;BME280;58548;47.210;8.618;2022-09-09T14:31:52;93963.81;;;31.63;24.56
70902;BME280;58548;47.210;8.618;2022-09-09T14:34:20;93960.72;;;31.52;24.65
70902;BME280;58548;47.210;8.618;2022-09-09T14:36:46;93970.09;;;31.46;25.10
70902;BME280;58548;47.210;8.618;2022-09-09T14:39:12;93961.44;;;31.32;25.28
70902;BME280;58548;47.210;8.618;2022-09-09T14:41:38;93954.50;;;31.22;24.87
70902;BME280;58548;47.210;8.618;2022-09-09T14:44:11;93929.97;;;30.97;24.15
70902;BME280;58548;47.210;8.618;2022-09-09T14:46:39;93967.69;;;31.23;23.97
70902;BME280;58548;47.210;8.618;2022-09-09T14:49:08;93937.34;;;30.79;24.99
70902;BME280;58548;47.210;8.618;2022-09-09T14:51:38;93971.06;;;30.94;25.17
70902;BME280;58548;47.210;8.618;2022-09-09T14:54:07;93977.28;;;30.86;24.66
70902;BME280;58548;47.210;8.618;2022-09-09T14:56:39;93949.72;;;30.62;24.85
70902;BME280;58548;47.210;8.618;2022-09-09T14:59:04;93968.75;;;30.75;25.14
70902;BME280;58548;47.210;8.618;2022-09-09T15:01:33;93978.72;;;30.74;25.95
70902;BME280;58548;47.210;8.618;2022-09-09T15:04:02;93956.72;;;30.63;25.41
70902;BME280;58548;47.210;8.618;2022-09-09T15:06:31;93951.19;;;30.60;24.30
70902;BME280;58548;47.210;8.618;2022-09-09T15:09:01;93911.91;;;30.32;23.20
70902;BME280;58548;47.210;8.618;2022-09-09T15:11:34;93983.19;;;30.70;23.16
70902;BME280;58548;47.210;8.618;2022-09-09T15:14:04;93944.81;;;30.47;23.57
70902;BME280;58548;47.210;8.618;2022-09-09T15:16:31;93949.72;;;30.53;23.86
70902;BME280;58548;47.210;8.618;2022-09-09T15:19:02;93965.91;;;30.62;24.80
70902;BME280;58548;47.210;8.618;2022-09-09T15:21:31;93954.81;;;30.73;22.93
70902;BME280;58548;47.210;8.618;2022-09-09T15:23:57;93966.38;;;30.82;22.04
70902;BME280;58548;47.210;8.618;2022-09-09T15:26:27;93971.59;;;30.78;22.40
70902;BME280;58548;47.210;8.618;2022-09-09T15:28:55;93945.00;;;30.59;21.52
70902;BME280;58548;47.210;8.618;2022-09-09T15:31:30;93963.84;;;30.68;21.72
70902;BME280;58548;47.210;8.618;2022-09-09T15:34:03;93976.19;;;30.78;21.77
70902;BME280;58548;47.210;8.618;2022-09-09T15:36:38;93979.38;;;30.71;22.61
70902;BME280;58548;47.210;8.618;2022-09-09T15:39:07;93971.28;;;30.62;21.84
70902;BME280;58548;47.210;8.618;2022-09-09T15:41:39;93977.16;;;30.56;20.96
70902;BME280;58548;47.210;8.618;2022-09-09T15:44:09;93956.56;;;30.42;21.43
70902;BME280;58548;47.210;8.618;2022-09-09T15:46:43;93946.44;;;30.21;21.29
70902;BME280;58548;47.210;8.618;2022-09-09T15:51:40;93944.88;;;30.03;21.86
70902;BME280;58548;47.210;8.618;2022-09-09T15:54:13;93955.91;;;29.92;23.09
70902;BME280;58548;47.210;8.618;2022-09-09T15:56:40;93964.81;;;30.02;22.91
70902;BME280;58548;47.210;8.618;2022-09-09T15:59:09;93946.72;;;29.93;22.58
70902;BME280;58548;47.210;8.618;2022-09-09T16:01:38;93960.63;;;29.78;22.30
70902;BME280;58548;47.210;8.618;2022-09-09T16:04:05;93967.28;;;29.72;22.69
70902;BME280;58548;47.210;8.618;2022-09-09T16:06:33;93960.41;;;29.57;22.11